createdAt,value
2018-04-07T00:00:57.607Z,0.00
2018-04-07T00:01:57.601Z,0.00
2018-04-07T00:02:57.565Z,0.00
2018-04-07T00:03:57.536Z,0.00
2018-04-07T00:04:57.536Z,0.00
2018-04-07T00:05:57.509Z,0.00
2018-04-07T00:06:57.492Z,0.00
2018-04-07T00:07:57.453Z,0.00
2018-04-07T00:08:57.502Z,0.00
2018-04-07T00:09:57.430Z,0.00
2018-04-07T00:10:57.405Z,0.00
2018-04-07T00:11:57.389Z,0.00
2018-04-07T00:12:57.370Z,0.00
2018-04-07T00:13:57.346Z,0.00
2018-04-07T00:14:57.333Z,0.00
2018-04-07T00:15:57.308Z,0.00
2018-04-07T00:16:57.295Z,0.00
2018-04-07T00:17:57.308Z,0.00
2018-04-07T00:18:57.271Z,0.00
2018-04-07T00:19:57.242Z,0.00
2018-04-07T00:20:57.218Z,0.00
2018-04-07T00:21:57.249Z,0.00
2018-04-07T00:22:57.186Z,0.00
2018-04-07T00:23:57.153Z,0.00
2018-04-07T00:24:57.144Z,0.00
2018-04-07T00:25:57.132Z,0.00
2018-04-07T00:26:57.125Z,0.00
2018-04-07T00:27:57.083Z,0.00
2018-04-07T00:28:57.065Z,0.00
2018-04-07T00:29:57.053Z,0.00
2018-04-07T00:30:57.043Z,0.00
2018-04-07T00:31:57.013Z,0.00
2018-04-07T00:32:56.998Z,0.00
2018-04-07T00:33:57.007Z,0.00
2018-04-07T00:34:56.956Z,0.00
2018-04-07T00:35:56.932Z,0.00
2018-04-07T00:36:56.943Z,0.00
2018-04-07T00:37:56.900Z,0.00
2018-04-07T00:38:56.890Z,0.00
2018-04-07T00:39:56.859Z,0.00
2018-04-07T00:40:56.844Z,0.00
2018-04-07T00:41:56.828Z,0.00
2018-04-07T00:42:56.803Z,0.00
2018-04-07T00:43:56.793Z,0.00
2018-04-07T00:44:56.773Z,0.00
2018-04-07T00:45:56.750Z,0.00
2018-04-07T00:46:56.739Z,0.00
2018-04-07T00:47:56.709Z,0.00
2018-04-07T00:48:56.699Z,0.00
2018-04-07T00:49:56.746Z,0.00
2018-04-07T00:50:56.666Z,0.00
2018-04-07T00:51:56.634Z,0.00
2018-04-07T00:52:56.617Z,0.00
2018-04-07T00:53:56.596Z,0.00
2018-04-07T00:54:56.588Z,0.00
2018-04-07T00:55:56.559Z,0.00
2018-04-07T00:56:56.541Z,0.00
2018-04-07T00:57:56.524Z,0.00
2018-04-07T00:58:56.520Z,0.00
2018-04-07T00:59:56.485Z,0.00
2018-04-07T01:00:56.474Z,0.00
2018-04-07T01:01:56.499Z,0.00
2018-04-07T01:02:56.438Z,0.00
2018-04-07T01:03:56.417Z,0.00
2018-04-07T01:04:56.390Z,0.00
2018-04-07T01:05:56.423Z,0.00
2018-04-07T01:06:56.369Z,0.00
2018-04-07T01:07:56.336Z,0.00
2018-04-07T01:08:56.313Z,0.00
2018-04-07T01:09:56.339Z,0.00
2018-04-07T01:10:56.286Z,0.00
2018-04-07T01:11:56.305Z,0.00
2018-04-07T01:12:56.239Z,0.00
2018-04-07T01:13:56.222Z,0.00
2018-04-07T01:14:56.220Z,0.00
2018-04-07T01:15:56.186Z,0.00
2018-04-07T01:16:56.163Z,0.00
2018-04-07T01:17:56.153Z,0.00
2018-04-07T01:18:56.166Z,0.00
2018-04-07T01:19:56.117Z,0.00
2018-04-07T01:20:56.185Z,0.00
2018-04-07T01:21:56.090Z,0.00
2018-04-07T01:22:56.080Z,0.00
2018-04-07T01:23:56.030Z,0.00
2018-04-07T01:24:56.015Z,0.00
2018-04-07T01:25:56.014Z,0.00
2018-04-07T01:26:56.003Z,0.00
2018-04-07T01:27:55.967Z,0.00
2018-04-07T01:28:55.947Z,0.00
2018-04-07T01:29:55.952Z,0.00
2018-04-07T01:30:55.917Z,0.00
2018-04-07T01:31:55.918Z,0.00
2018-04-07T01:32:55.873Z,0.00
2018-04-07T01:33:55.858Z,0.00
2018-04-07T01:34:55.841Z,0.00
2018-04-07T01:35:55.879Z,0.00
2018-04-07T01:36:55.789Z,0.00
2018-04-07T01:37:55.781Z,0.00
2018-04-07T01:38:55.773Z,0.00
2018-04-07T01:39:55.746Z,0.00
2018-04-07T01:40:55.710Z,0.00
2018-04-07T01:41:55.718Z,0.00
2018-04-07T01:42:55.695Z,0.00
2018-04-07T01:43:55.704Z,0.00
2018-04-07T01:44:55.633Z,0.00
2018-04-07T01:45:55.713Z,0.00
2018-04-07T01:46:55.621Z,0.00
2018-04-07T01:47:55.578Z,0.00
2018-04-07T01:48:55.695Z,0.00
2018-04-07T01:49:55.550Z,0.00
2018-04-07T01:50:55.546Z,0.00
2018-04-07T01:51:55.500Z,0.00
2018-04-07T01:52:55.483Z,0.00
2018-04-07T01:53:55.474Z,0.00
2018-04-07T01:54:55.481Z,0.00
2018-04-07T01:55:55.427Z,0.00
2018-04-07T01:56:55.411Z,0.00
2018-04-07T01:57:55.400Z,0.00
2018-04-07T01:58:55.396Z,0.00
2018-04-07T01:59:55.346Z,0.00
2018-04-07T02:00:55.349Z,0.00
2018-04-07T02:01:55.388Z,0.00
2018-04-07T02:02:55.320Z,0.00
2018-04-07T02:03:55.292Z,0.00
2018-04-07T02:04:55.267Z,0.00
2018-04-07T02:05:55.263Z,0.00
2018-04-07T02:06:55.253Z,0.00
2018-04-07T02:07:55.195Z,0.00
2018-04-07T02:08:55.199Z,0.00
2018-04-07T02:09:55.172Z,0.00
2018-04-07T02:10:55.150Z,0.00
2018-04-07T02:11:55.130Z,0.00
2018-04-07T02:12:55.103Z,0.00
2018-04-07T02:13:55.113Z,0.00
2018-04-07T02:14:55.062Z,0.00
2018-04-07T02:15:55.044Z,0.00
2018-04-07T02:16:55.031Z,0.00
2018-04-07T02:17:55.021Z,0.00
2018-04-07T02:18:54.990Z,0.00
2018-04-07T02:19:54.965Z,0.00
2018-04-07T02:20:54.947Z,0.00
2018-04-07T02:21:54.945Z,0.00
2018-04-07T02:22:54.911Z,0.00
2018-04-07T02:23:54.899Z,0.00
2018-04-07T02:24:54.892Z,0.00
2018-04-07T02:25:54.865Z,0.00
2018-04-07T02:26:54.851Z,0.00
2018-04-07T02:27:54.818Z,0.00
2018-04-07T02:28:54.803Z,0.00
2018-04-07T02:29:54.793Z,0.00
2018-04-07T02:30:54.760Z,0.00
2018-04-07T02:31:54.778Z,0.00
2018-04-07T02:32:54.790Z,0.00
2018-04-07T02:33:54.725Z,0.00
2018-04-07T02:34:54.685Z,0.00
2018-04-07T02:35:54.661Z,0.00
2018-04-07T02:36:54.650Z,0.00
2018-04-07T02:37:54.636Z,0.00
2018-04-07T02:38:54.607Z,0.00
2018-04-07T02:39:54.606Z,0.00
2018-04-07T02:40:54.568Z,0.00
2018-04-07T02:41:54.571Z,0.00
2018-04-07T02:42:54.527Z,0.00
2018-04-07T02:43:54.526Z,0.00
2018-04-07T02:44:54.494Z,0.00
2018-04-07T02:45:54.496Z,0.00
2018-04-07T02:46:54.460Z,0.00
2018-04-07T02:47:54.432Z,0.00
2018-04-07T02:48:54.421Z,0.00
2018-04-07T02:49:54.437Z,0.00
2018-04-07T02:50:54.386Z,0.00
2018-04-07T02:51:54.355Z,0.00
2018-04-07T02:52:54.336Z,0.00
2018-04-07T02:53:54.356Z,0.00
2018-04-07T02:54:54.302Z,0.00
2018-04-07T02:55:54.277Z,0.00
2018-04-07T02:56:54.280Z,0.00
2018-04-07T02:57:54.289Z,0.00
2018-04-07T02:58:54.222Z,0.00
2018-04-07T02:59:54.240Z,0.00
2018-04-07T03:00:54.209Z,0.00
2018-04-07T03:01:54.168Z,0.00
2018-04-07T03:02:54.142Z,0.00
2018-04-07T03:03:54.183Z,0.00
2018-04-07T03:04:54.118Z,0.00
2018-04-07T03:05:54.118Z,0.00
2018-04-07T03:06:54.083Z,0.00
2018-04-07T03:07:54.048Z,0.00
2018-04-07T03:08:54.034Z,0.00
2018-04-07T03:09:54.007Z,0.00
2018-04-07T03:10:54.008Z,0.00
2018-04-07T03:11:53.993Z,0.00
2018-04-07T03:12:53.976Z,0.00
2018-04-07T03:13:53.959Z,0.00
2018-04-07T03:14:53.950Z,0.00
2018-04-07T03:15:53.920Z,0.00
2018-04-07T03:16:53.889Z,0.00
2018-04-07T03:17:53.856Z,0.00
2018-04-07T03:18:53.841Z,0.00
2018-04-07T03:19:53.834Z,0.00
2018-04-07T03:20:53.817Z,0.00
2018-04-07T03:21:53.822Z,0.00
2018-04-07T03:22:53.777Z,0.00
2018-04-07T03:23:53.762Z,0.00
2018-04-07T03:24:53.729Z,0.00
2018-04-07T03:25:53.702Z,0.00
2018-04-07T03:26:53.701Z,0.00
2018-04-07T03:27:53.688Z,0.00
2018-04-07T03:28:53.656Z,0.00
2018-04-07T03:29:53.634Z,0.00
2018-04-07T03:30:53.612Z,0.00
2018-04-07T03:31:53.590Z,0.00
2018-04-07T03:32:53.618Z,0.00
2018-04-07T03:33:53.556Z,0.00
2018-04-07T03:34:53.531Z,0.00
2018-04-07T03:35:53.511Z,0.00
2018-04-07T03:36:53.524Z,0.00
2018-04-07T03:37:53.473Z,0.00
2018-04-07T03:38:53.470Z,0.00
2018-04-07T03:39:53.432Z,0.00
2018-04-07T03:40:53.408Z,0.00
2018-04-07T03:41:53.391Z,0.00
2018-04-07T03:42:53.370Z,0.00
2018-04-07T03:43:53.360Z,0.00
2018-04-07T03:44:53.337Z,0.00
2018-04-07T03:45:53.310Z,0.00
2018-04-07T03:46:53.291Z,0.00
2018-04-07T03:47:53.285Z,0.00
2018-04-07T03:48:53.273Z,0.00
2018-04-07T03:49:53.288Z,0.00
2018-04-07T03:50:53.217Z,0.00
2018-04-07T03:51:53.218Z,0.00
2018-04-07T03:52:53.190Z,0.00
2018-04-07T03:53:53.158Z,0.00
2018-04-07T03:54:53.154Z,0.00
2018-04-07T03:55:53.124Z,0.00
2018-04-07T03:56:53.150Z,0.00
2018-04-07T03:57:53.098Z,0.00
2018-04-07T03:58:53.076Z,0.00
2018-04-07T03:59:53.052Z,0.00
2018-04-07T04:00:53.018Z,0.00
2018-04-07T04:01:52.999Z,0.00
2018-04-07T04:02:52.989Z,0.00
2018-04-07T04:03:52.993Z,0.00
2018-04-07T04:04:52.949Z,0.00
2018-04-07T04:05:52.946Z,0.00
2018-04-07T04:06:52.953Z,0.00
2018-04-07T04:07:52.927Z,0.00
2018-04-07T04:08:52.946Z,0.00
2018-04-07T04:09:52.851Z,0.00
2018-04-07T04:10:52.845Z,0.00
2018-04-07T04:11:52.833Z,0.00
2018-04-07T04:12:52.788Z,0.00
2018-04-07T04:13:52.772Z,0.00
2018-04-07T04:14:52.761Z,0.00
2018-04-07T04:15:52.730Z,0.00
2018-04-07T04:16:52.710Z,0.00
2018-04-07T04:17:52.689Z,0.00
2018-04-07T04:18:52.681Z,4.00
2018-04-07T04:19:52.681Z,4.00
2018-04-07T04:20:52.630Z,0.00
2018-04-07T04:21:52.629Z,4.00
2018-04-07T04:22:52.599Z,4.00
2018-04-07T04:23:52.569Z,4.00
2018-04-07T04:24:52.552Z,4.00
2018-04-07T04:25:52.538Z,4.00
2018-04-07T04:26:52.534Z,4.00
2018-04-07T04:27:52.500Z,8.00
2018-04-07T04:28:52.476Z,12.00
2018-04-07T04:29:52.464Z,12.00
2018-04-07T04:30:52.445Z,16.00
2018-04-07T04:31:52.454Z,16.00
2018-04-07T04:32:52.402Z,20.00
2018-04-07T04:33:52.407Z,24.00
2018-04-07T04:34:52.383Z,28.00
2018-04-07T04:35:52.382Z,28.00
2018-04-07T04:36:52.340Z,36.00
2018-04-07T04:37:52.316Z,44.00
2018-04-07T04:38:52.314Z,48.00
2018-04-07T04:39:52.260Z,56.00
2018-04-07T04:40:52.242Z,64.00
2018-04-07T04:41:52.260Z,68.00
2018-04-07T04:42:52.232Z,80.00
2018-04-07T04:43:52.221Z,84.00
2018-04-07T04:44:52.180Z,92.00
2018-04-07T04:45:52.167Z,104.00
2018-04-07T04:46:52.159Z,120.00
2018-04-07T04:47:52.103Z,132.00
2018-04-07T04:48:52.090Z,144.00
2018-04-07T04:49:52.085Z,164.00
2018-04-07T04:50:52.062Z,180.00
2018-04-07T04:51:52.028Z,204.00
2018-04-07T04:52:52.017Z,232.00
2018-04-07T04:53:52.000Z,264.00
2018-04-07T04:54:52.004Z,292.00
2018-04-07T04:55:51.952Z,332.00
2018-04-07T04:56:51.950Z,368.00
2018-04-07T04:57:51.930Z,412.00
2018-04-07T04:58:51.919Z,460.00
2018-04-07T04:59:51.881Z,500.00
2018-04-07T05:00:51.858Z,548.00
2018-04-07T05:01:51.883Z,600.00
2018-04-07T05:02:51.821Z,648.00
2018-04-07T05:03:51.804Z,692.00
2018-04-07T05:04:51.786Z,736.00
2018-04-07T05:05:51.766Z,780.00
2018-04-07T05:06:51.738Z,820.00
2018-04-07T05:07:51.790Z,856.00
2018-04-07T05:08:51.715Z,900.00
2018-04-07T05:09:51.688Z,948.00
2018-04-07T05:10:51.663Z,996.00
2018-04-07T05:11:51.652Z,1040.00
2018-04-07T05:12:51.644Z,1092.00
2018-04-07T05:13:51.608Z,1144.00
2018-04-07T05:14:51.645Z,1192.00
2018-04-07T05:15:51.558Z,1252.00
2018-04-07T05:16:51.592Z,1304.00
2018-04-07T05:17:51.535Z,1360.00
2018-04-07T05:18:51.563Z,1420.00
2018-04-07T05:19:51.503Z,1456.00
2018-04-07T05:20:51.509Z,1500.00
2018-04-07T05:21:51.487Z,1556.00
2018-04-07T05:22:51.433Z,1632.00
2018-04-07T05:23:51.406Z,1684.00
2018-04-07T05:24:51.400Z,1748.00
2018-04-07T05:25:51.386Z,1816.00
2018-04-07T05:26:51.346Z,1892.00
2018-04-07T05:27:51.333Z,1968.00
2018-04-07T05:28:51.334Z,2032.00
2018-04-07T05:29:51.307Z,2080.00
2018-04-07T05:30:51.296Z,2164.00
2018-04-07T05:31:51.253Z,2236.00
2018-04-07T05:32:51.256Z,2328.00
2018-04-07T05:33:51.214Z,2428.00
2018-04-07T05:34:51.202Z,2520.00
2018-04-07T05:35:51.184Z,2596.00
2018-04-07T05:36:51.187Z,2684.00
2018-04-07T05:37:51.172Z,2756.00
2018-04-07T05:38:51.127Z,2824.00
2018-04-07T05:39:51.111Z,2904.00
2018-04-07T05:40:51.092Z,2940.00
2018-04-07T05:41:51.055Z,3012.00
2018-04-07T05:42:51.035Z,3112.00
2018-04-07T05:43:51.043Z,3184.00
2018-04-07T05:44:51.038Z,3260.00
2018-04-07T05:45:51.043Z,3320.00
2018-04-07T05:46:50.962Z,3352.00
2018-04-07T05:47:50.966Z,3392.00
2018-04-07T05:48:50.942Z,3432.00
2018-04-07T05:49:50.928Z,3476.00
2018-04-07T05:50:50.886Z,3540.00
2018-04-07T05:51:50.888Z,3640.00
2018-04-07T05:52:50.869Z,3720.00
2018-04-07T05:53:50.827Z,3784.00
2018-04-07T05:54:50.837Z,3852.00
2018-04-07T05:55:50.818Z,3844.00
2018-04-07T05:56:50.798Z,3792.00
2018-04-07T05:57:50.758Z,3836.00
2018-04-07T05:58:50.736Z,3912.00
2018-04-07T05:59:50.808Z,3928.00
2018-04-07T06:00:50.711Z,3956.00
2018-04-07T06:01:50.677Z,3936.00
2018-04-07T06:02:50.680Z,3988.00
2018-04-07T06:03:50.661Z,4056.00
2018-04-07T06:04:50.652Z,4144.00
2018-04-07T06:05:50.622Z,4276.00
2018-04-07T06:06:50.587Z,4480.00
2018-04-07T06:07:50.577Z,4932.00
2018-04-07T06:08:50.586Z,5288.00
2018-04-07T06:09:50.606Z,5872.00
2018-04-07T06:10:50.529Z,6644.00
2018-04-07T06:11:50.498Z,6684.00
2018-04-07T06:12:50.500Z,6564.00
2018-04-07T06:13:50.471Z,7040.00
2018-04-07T06:14:50.429Z,7684.00
2018-04-07T06:15:50.443Z,7852.00
2018-04-07T06:16:50.432Z,8128.00
2018-04-07T06:17:50.423Z,10236.00
2018-04-07T06:18:50.454Z,12612.00
2018-04-07T06:19:50.353Z,11212.00
2018-04-07T06:20:50.361Z,9060.00
2018-04-07T06:21:50.320Z,8444.00
2018-04-07T06:22:50.351Z,7708.00
2018-04-07T06:23:50.285Z,7612.00
2018-04-07T06:24:50.257Z,7644.00
2018-04-07T06:25:50.238Z,7476.00
2018-04-07T06:26:50.238Z,7428.00
2018-04-07T06:27:50.219Z,7576.00
2018-04-07T06:28:50.234Z,7500.00
2018-04-07T06:29:50.184Z,7540.00
2018-04-07T06:30:50.173Z,7596.00
2018-04-07T06:31:50.136Z,7560.00
2018-04-07T06:32:50.151Z,7776.00
2018-04-07T06:33:50.129Z,7536.00
2018-04-07T06:34:50.160Z,7184.00
2018-04-07T06:35:50.075Z,6824.00
2018-04-07T06:36:50.067Z,5876.00
2018-04-07T06:37:50.047Z,5344.00
2018-04-07T06:38:50.013Z,5008.00
2018-04-07T06:39:49.995Z,5008.00
2018-04-07T06:40:50.021Z,4976.00
2018-04-07T06:41:50.002Z,5076.00
2018-04-07T06:42:49.974Z,5100.00
2018-04-07T06:43:49.984Z,5104.00
2018-04-07T06:44:49.966Z,5132.00
2018-04-07T06:45:49.925Z,5204.00
2018-04-07T06:46:49.975Z,5204.00
2018-04-07T06:47:49.926Z,5204.00
2018-04-07T06:48:49.858Z,5208.00
2018-04-07T06:49:49.858Z,5188.00
2018-04-07T06:50:49.843Z,5204.00
2018-04-07T06:51:49.836Z,5256.00
2018-04-07T06:52:49.806Z,5292.00
2018-04-07T06:53:49.766Z,5276.00
2018-04-07T06:54:49.761Z,5312.00
2018-04-07T06:55:49.764Z,5272.00
2018-04-07T06:56:49.753Z,5244.00
2018-04-07T06:57:49.727Z,5236.00
2018-04-07T06:58:49.707Z,5232.00
2018-04-07T06:59:49.687Z,5232.00
2018-04-07T07:00:49.655Z,5196.00
2018-04-07T07:01:49.643Z,5196.00
2018-04-07T07:02:49.647Z,5208.00
2018-04-07T07:03:49.635Z,5152.00
2018-04-07T07:04:49.595Z,5100.00
2018-04-07T07:05:49.583Z,5040.00
2018-04-07T07:06:49.565Z,5044.00
2018-04-07T07:07:49.618Z,5032.00
2018-04-07T07:08:49.536Z,5052.00
2018-04-07T07:09:49.516Z,5096.00
2018-04-07T07:10:49.522Z,5148.00
2018-04-07T07:11:49.477Z,5200.00
2018-04-07T07:12:49.475Z,5280.00
2018-04-07T07:13:49.488Z,5380.00
2018-04-07T07:14:49.428Z,5472.00
2018-04-07T07:15:49.431Z,5668.00
2018-04-07T07:16:49.417Z,5788.00
2018-04-07T07:17:49.415Z,5968.00
2018-04-07T07:18:49.362Z,6156.00
2018-04-07T07:19:49.344Z,6168.00
2018-04-07T07:20:49.383Z,6468.00
2018-04-07T07:21:49.362Z,6580.00
2018-04-07T07:22:49.307Z,6580.00
2018-04-07T07:23:49.298Z,6640.00
2018-04-07T07:24:49.265Z,6608.00
2018-04-07T07:25:49.265Z,6548.00
2018-04-07T07:26:49.251Z,6628.00
2018-04-07T07:27:49.218Z,6552.00
2018-04-07T07:28:49.296Z,6524.00
2018-04-07T07:29:49.199Z,6464.00
2018-04-07T07:30:49.193Z,6432.00
2018-04-07T07:31:49.181Z,6452.00
2018-04-07T07:32:49.134Z,6524.00
2018-04-07T07:33:49.125Z,6580.00
2018-04-07T07:34:49.131Z,6508.00
2018-04-07T07:35:49.104Z,6624.00
2018-04-07T07:36:49.078Z,6636.00
2018-04-07T07:37:49.072Z,6628.00
2018-04-07T07:38:49.034Z,6600.00
2018-04-07T07:39:49.032Z,6616.00
2018-04-07T07:40:48.983Z,6620.00
2018-04-07T07:41:49.005Z,6640.00
2018-04-07T07:42:48.992Z,6608.00
2018-04-07T07:43:48.971Z,6524.00
2018-04-07T07:44:48.927Z,6536.00
2018-04-07T07:45:48.915Z,6400.00
2018-04-07T07:46:48.903Z,6400.00
2018-04-07T07:47:48.921Z,6328.00
2018-04-07T07:48:48.866Z,6252.00
2018-04-07T07:49:48.844Z,6208.00
2018-04-07T07:50:48.872Z,6152.00
2018-04-07T07:51:48.844Z,6124.00
2018-04-07T07:52:48.905Z,6076.00
2018-04-07T07:53:48.789Z,6084.00
2018-04-07T07:54:48.947Z,6028.00
2018-04-07T07:55:48.759Z,5948.00
2018-04-07T07:56:48.772Z,5892.00
2018-04-07T07:57:48.712Z,5896.00
2018-04-07T07:58:48.704Z,5764.00
2018-04-07T07:59:48.718Z,5760.00
2018-04-07T08:00:48.685Z,5804.00
2018-04-07T08:01:48.640Z,5864.00
2018-04-07T08:02:48.639Z,5908.00
2018-04-07T08:03:48.614Z,5916.00
2018-04-07T08:04:48.609Z,5932.00
2018-04-07T08:05:48.571Z,5952.00
2018-04-07T08:06:48.556Z,5956.00
2018-04-07T08:07:48.552Z,5932.00
2018-04-07T08:08:48.612Z,5904.00
2018-04-07T08:09:48.538Z,5896.00
2018-04-07T08:10:48.485Z,5868.00
2018-04-07T08:11:48.490Z,5912.00
2018-04-07T08:12:48.476Z,5868.00
2018-04-07T08:13:48.460Z,5772.00
2018-04-07T08:14:48.443Z,5752.00
2018-04-07T08:15:48.410Z,5700.00
2018-04-07T08:16:48.396Z,5716.00
2018-04-07T08:17:48.458Z,5768.00
2018-04-07T08:18:48.416Z,5700.00
2018-04-07T08:19:48.350Z,5740.00
2018-04-07T08:20:48.431Z,5668.00
2018-04-07T08:21:48.328Z,5708.00
2018-04-07T08:22:48.330Z,5752.00
2018-04-07T08:23:48.270Z,5744.00
2018-04-07T08:24:48.288Z,5864.00
2018-04-07T08:25:48.452Z,5924.00
2018-04-07T08:26:48.259Z,5884.00
2018-04-07T08:27:48.260Z,5876.00
2018-04-07T08:28:48.194Z,5936.00
2018-04-07T08:29:48.184Z,5908.00
2018-04-07T08:30:48.199Z,5892.00
2018-04-07T08:31:48.183Z,5896.00
2018-04-07T08:32:48.130Z,5880.00
2018-04-07T08:33:48.135Z,5864.00
2018-04-07T08:34:48.125Z,5892.00
2018-04-07T08:35:48.147Z,5928.00
2018-04-07T08:36:48.101Z,5888.00
2018-04-07T08:37:48.049Z,5924.00
2018-04-07T08:38:48.111Z,5996.00
2018-04-07T08:39:48.041Z,6068.00
2018-04-07T08:40:48.015Z,6020.00
2018-04-07T08:41:47.992Z,6100.00
2018-04-07T08:42:47.965Z,6092.00
2018-04-07T08:43:47.960Z,6112.00
2018-04-07T08:44:47.960Z,6140.00
2018-04-07T08:45:48.006Z,6200.00
2018-04-07T08:46:47.946Z,6204.00
2018-04-07T08:47:47.907Z,6192.00
2018-04-07T08:48:47.926Z,6192.00
2018-04-07T08:49:47.890Z,6212.00
2018-04-07T08:50:47.876Z,6308.00
2018-04-07T08:51:47.864Z,6292.00
2018-04-07T08:52:47.845Z,6332.00
2018-04-07T08:53:47.824Z,6336.00
2018-04-07T08:54:47.779Z,6352.00
2018-04-07T08:55:47.791Z,6384.00
2018-04-07T08:56:47.769Z,6308.00
2018-04-07T08:57:47.781Z,6268.00
2018-04-07T08:58:47.743Z,6148.00
2018-04-07T08:59:47.728Z,6160.00
2018-04-07T09:00:47.695Z,6120.00
2018-04-07T09:01:47.691Z,6132.00
2018-04-07T09:02:47.678Z,6140.00
2018-04-07T09:03:47.670Z,6080.00
2018-04-07T09:04:47.699Z,6024.00
2018-04-07T09:05:47.621Z,6008.00
2018-04-07T09:06:47.611Z,5992.00
2018-04-07T09:07:47.594Z,5980.00
2018-04-07T09:08:47.599Z,5896.00
2018-04-07T09:09:47.552Z,5912.00
2018-04-07T09:10:47.535Z,5860.00
2018-04-07T09:11:47.552Z,5636.00
2018-04-07T09:12:47.529Z,5608.00
2018-04-07T09:13:47.491Z,5776.00
2018-04-07T09:14:47.483Z,5820.00
2018-04-07T09:15:47.471Z,5840.00
2018-04-07T09:16:47.451Z,5824.00
2018-04-07T09:17:47.450Z,5916.00
2018-04-07T09:18:47.418Z,5912.00
2018-04-07T09:19:47.399Z,5944.00
2018-04-07T09:20:47.415Z,5952.00
2018-04-07T09:21:47.495Z,5972.00
2018-04-07T09:22:47.400Z,5992.00
2018-04-07T09:23:47.345Z,5976.00
2018-04-07T09:24:47.347Z,5884.00
2018-04-07T09:25:47.354Z,5972.00
2018-04-07T09:26:47.311Z,5956.00
2018-04-07T09:27:47.306Z,5896.00
2018-04-07T09:28:47.268Z,5880.00
2018-04-07T09:29:47.269Z,5592.00
2018-04-07T09:30:47.268Z,5436.00
2018-04-07T09:31:47.270Z,5452.00
2018-04-07T09:32:47.243Z,5460.00
2018-04-07T09:33:47.218Z,5620.00
2018-04-07T09:34:47.188Z,5768.00
2018-04-07T09:35:47.182Z,5788.00
2018-04-07T09:36:47.175Z,5804.00
2018-04-07T09:37:47.144Z,5740.00
2018-04-07T09:38:47.145Z,5840.00
2018-04-07T09:39:47.116Z,5720.00
2018-04-07T09:40:47.162Z,5584.00
2018-04-07T09:41:47.123Z,5612.00
2018-04-07T09:42:47.079Z,5616.00
2018-04-07T09:43:47.065Z,5588.00
2018-04-07T09:44:47.058Z,5584.00
2018-04-07T09:45:47.141Z,5616.00
2018-04-07T09:46:47.055Z,5560.00
2018-04-07T09:47:46.997Z,5492.00
2018-04-07T09:48:46.996Z,5472.00
2018-04-07T09:49:47.056Z,5516.00
2018-04-07T09:50:46.974Z,5384.00
2018-04-07T09:51:46.979Z,5392.00
2018-04-07T09:52:46.928Z,5364.00
2018-04-07T09:53:46.913Z,5388.00
2018-04-07T09:54:46.920Z,5364.00
2018-04-07T09:55:47.069Z,5320.00
2018-04-07T09:56:46.944Z,5268.00
2018-04-07T09:57:46.907Z,5272.00
2018-04-07T09:58:46.858Z,5288.00
2018-04-07T09:59:46.872Z,5236.00
2018-04-07T10:00:46.848Z,5256.00
2018-04-07T10:01:46.853Z,5288.00
2018-04-07T10:02:46.800Z,5256.00
2018-04-07T10:03:46.786Z,5284.00
2018-04-07T10:04:46.792Z,5224.00
2018-04-07T10:05:46.764Z,5204.00
2018-04-07T10:06:46.762Z,5180.00
2018-04-07T10:07:46.727Z,5232.00
2018-04-07T10:08:46.708Z,5248.00
2018-04-07T10:09:46.724Z,5280.00
2018-04-07T10:10:46.705Z,5276.00
2018-04-07T10:11:46.681Z,5480.00
2018-04-07T10:12:46.674Z,5284.00
2018-04-07T10:13:46.713Z,5308.00
2018-04-07T10:14:46.651Z,5348.00
2018-04-07T10:15:46.664Z,5380.00
2018-04-07T10:16:46.623Z,5388.00
2018-04-07T10:17:46.585Z,5368.00
2018-04-07T10:18:46.599Z,5372.00
2018-04-07T10:19:46.571Z,5284.00
2018-04-07T10:20:46.564Z,5364.00
2018-04-07T10:21:46.560Z,5324.00
2018-04-07T10:22:46.585Z,5276.00
2018-04-07T10:23:46.531Z,5196.00
2018-04-07T10:24:46.540Z,5120.00
2018-04-07T10:25:46.519Z,5116.00
2018-04-07T10:26:46.492Z,5284.00
2018-04-07T10:27:46.464Z,5268.00
2018-04-07T10:28:46.457Z,5332.00
2018-04-07T10:29:46.444Z,5148.00
2018-04-07T10:30:46.465Z,5160.00
2018-04-07T10:31:46.593Z,5264.00
2018-04-07T10:32:46.406Z,5252.00
2018-04-07T10:33:46.380Z,5212.00
2018-04-07T10:34:46.380Z,5236.00
2018-04-07T10:35:46.364Z,5140.00
2018-04-07T10:36:46.431Z,5232.00
2018-04-07T10:37:46.348Z,5252.00
2018-04-07T10:38:46.353Z,5260.00
2018-04-07T10:39:46.317Z,5316.00
2018-04-07T10:40:46.358Z,5256.00
2018-04-07T10:41:46.308Z,5276.00
2018-04-07T10:42:46.331Z,5276.00
2018-04-07T10:43:46.293Z,5344.00
2018-04-07T10:44:46.239Z,5296.00
2018-04-07T10:45:46.257Z,5340.00
2018-04-07T10:46:46.447Z,5328.00
2018-04-07T10:47:46.239Z,5152.00
2018-04-07T10:48:46.210Z,5152.00
2018-04-07T10:49:46.227Z,5092.00
2018-04-07T10:50:46.202Z,5152.00
2018-04-07T10:51:46.269Z,5180.00
2018-04-07T10:52:46.232Z,5120.00
2018-04-07T10:53:46.149Z,5092.00
2018-04-07T10:54:46.127Z,5072.00
2018-04-07T10:55:46.129Z,4916.00
2018-04-07T10:56:46.117Z,5064.00
2018-04-07T10:57:46.113Z,5100.00
2018-04-07T10:58:46.101Z,5040.00
2018-04-07T10:59:46.073Z,4908.00
2018-04-07T11:00:46.058Z,4872.00
2018-04-07T11:01:46.038Z,4672.00
2018-04-07T11:02:46.041Z,4888.00
2018-04-07T11:03:46.026Z,5056.00
2018-04-07T11:04:46.045Z,5036.00
2018-04-07T11:05:46.012Z,5184.00
2018-04-07T11:06:46.028Z,5272.00
2018-04-07T11:07:45.971Z,5384.00
2018-04-07T11:08:45.973Z,5668.00
2018-04-07T11:09:45.944Z,5800.00
2018-04-07T11:10:45.973Z,5956.00
2018-04-07T11:11:45.942Z,6028.00
2018-04-07T11:12:45.906Z,6180.00
2018-04-07T11:13:45.905Z,6460.00
2018-04-07T11:14:45.918Z,6552.00
2018-04-07T11:15:45.923Z,6700.00
2018-04-07T11:16:45.864Z,6712.00
2018-04-07T11:17:45.864Z,6908.00
2018-04-07T11:18:45.885Z,6956.00
2018-04-07T11:19:45.857Z,6944.00
2018-04-07T11:20:45.857Z,6876.00
2018-04-07T11:21:45.787Z,6808.00
2018-04-07T11:22:45.804Z,6776.00
2018-04-07T11:23:45.805Z,6744.00
2018-04-07T11:24:45.789Z,6756.00
2018-04-07T11:25:45.765Z,6700.00
2018-04-07T11:26:45.745Z,6668.00
2018-04-07T11:27:45.737Z,6572.00
2018-04-07T11:28:45.858Z,6580.00
2018-04-07T11:29:45.718Z,6432.00
2018-04-07T11:30:45.713Z,6352.00
2018-04-07T11:31:45.702Z,6132.00
2018-04-07T11:32:45.718Z,6016.00
2018-04-07T11:33:45.674Z,6020.00
2018-04-07T11:34:45.645Z,5968.00
2018-04-07T11:35:45.701Z,5972.00
2018-04-07T11:36:45.674Z,5896.00
2018-04-07T11:37:45.605Z,5844.00
2018-04-07T11:38:45.618Z,5820.00
2018-04-07T11:39:45.617Z,5692.00
2018-04-07T11:40:45.596Z,5660.00
2018-04-07T11:41:45.576Z,5580.00
2018-04-07T11:42:45.616Z,5508.00
2018-04-07T11:43:45.539Z,5372.00
2018-04-07T11:44:45.692Z,5240.00
2018-04-07T11:45:45.557Z,5216.00
2018-04-07T11:46:45.518Z,5124.00
2018-04-07T11:47:45.518Z,5144.00
2018-04-07T11:48:45.478Z,5076.00
2018-04-07T11:49:45.470Z,5068.00
2018-04-07T11:50:45.464Z,5024.00
2018-04-07T11:51:45.460Z,4948.00
2018-04-07T11:52:45.447Z,5004.00
2018-04-07T11:53:45.442Z,4996.00
2018-04-07T11:54:45.417Z,4932.00
2018-04-07T11:55:45.458Z,4936.00
2018-04-07T11:56:45.415Z,4888.00
2018-04-07T11:57:45.399Z,4860.00
2018-04-07T11:58:45.414Z,4828.00
2018-04-07T11:59:45.391Z,4760.00
2018-04-07T12:00:45.362Z,4732.00
2018-04-07T12:01:45.344Z,4680.00
2018-04-07T12:02:45.369Z,4612.00
2018-04-07T12:03:45.321Z,4496.00
2018-04-07T12:04:45.306Z,4552.00
2018-04-07T12:05:45.331Z,4516.00
2018-04-07T12:06:45.298Z,4372.00
2018-04-07T12:07:45.301Z,4364.00
2018-04-07T12:08:45.310Z,4412.00
2018-04-07T12:09:45.295Z,4432.00
2018-04-07T12:10:45.287Z,4368.00
2018-04-07T12:11:45.263Z,4320.00
2018-04-07T12:12:45.286Z,4252.00
2018-04-07T12:13:45.366Z,4152.00
2018-04-07T12:14:45.239Z,4228.00
2018-04-07T12:15:45.204Z,4376.00
2018-04-07T12:16:45.210Z,4492.00
2018-04-07T12:17:45.205Z,4528.00
2018-04-07T12:18:45.269Z,4676.00
2018-04-07T12:19:45.160Z,4716.00
2018-04-07T12:20:45.170Z,4760.00
2018-04-07T12:21:45.158Z,4848.00
2018-04-07T12:22:45.142Z,4832.00
2018-04-07T12:23:45.123Z,4968.00
2018-04-07T12:24:45.107Z,5140.00
2018-04-07T12:25:45.089Z,5184.00
2018-04-07T12:26:45.083Z,5264.00
2018-04-07T12:27:45.098Z,5356.00
2018-04-07T12:28:45.040Z,5448.00
2018-04-07T12:29:45.040Z,5308.00
2018-04-07T12:30:45.026Z,5340.00
2018-04-07T12:31:45.046Z,5232.00